createdAt,value
2022-07-28T12:49:54.000Z,0.142578
2022-07-28T12:50:14.000Z,18.396484
2022-07-28T12:50:35.000Z,15.612305
2022-07-28T12:50:55.000Z,13.858398
2022-07-28T12:51:15.000Z,17.009766
2022-07-28T12:51:36.000Z,22.880859
2022-07-28T12:51:56.000Z,7.439453
2022-07-28T12:52:16.000Z,6.820312
2022-07-28T12:52:36.000Z,0.097656
2022-07-28T12:52:57.000Z,0.092773
2022-07-28T12:53:44.000Z,0.026367
2022-07-28T12:54:04.000Z,0.080078
2022-07-28T12:54:05.000Z,1.613281
2022-07-28T12:55:39.000Z,8.928711
2022-07-28T12:55:59.000Z,0.094727
2022-07-28T12:56:19.000Z,0.103516
2022-07-28T12:56:40.000Z,4.347656
2022-07-28T12:57:00.000Z,0.202148
2022-07-28T12:57:20.000Z,0.109375
2022-07-28T12:57:40.000Z,0.753906
2022-07-28T12:58:01.000Z,15.769531
2022-07-28T12:58:21.000Z,5.400391
2022-07-28T12:58:41.000Z,6.359375
2022-07-28T12:59:01.000Z,5.279297
2022-07-28T12:59:22.000Z,7.557617
2022-07-28T12:59:42.000Z,7.724609
2022-07-28T13:00:02.000Z,7.189453
2022-07-28T13:00:22.000Z,8.226562
2022-07-28T13:00:43.000Z,7.003906
2022-07-28T13:01:03.000Z,2.620117
2022-07-28T13:01:23.000Z,14.162109
2022-07-28T13:01:44.000Z,18.182617
2022-07-28T13:02:04.000Z,14.264648
2022-07-28T13:02:24.000Z,8.412109
2022-07-28T13:02:44.000Z,2.158203
2022-07-28T13:03:05.000Z,0.098633
2022-07-28T13:03:25.000Z,2.727539
2022-07-28T13:03:45.000Z,7.582031
2022-07-28T13:04:05.000Z,0.093750
2022-07-28T13:04:26.000Z,0.123047
2022-07-28T13:04:46.000Z,0.108398
2022-07-28T13:04:51.000Z,1.724609
2022-07-28T13:13:57.000Z,0.091797
2022-07-28T13:14:17.000Z,0.113281
2022-07-28T13:14:37.000Z,0.094727
2022-07-28T13:14:46.000Z,1.662109
2022-07-28T13:23:44.000Z,0.111328
2022-07-28T13:24:04.000Z,0.098633
2022-07-28T13:24:24.000Z,0.103516
2022-07-28T13:24:34.000Z,1.596680
2022-07-28T13:33:28.000Z,0.097656
2022-07-28T13:33:49.000Z,0.105469
2022-07-28T13:34:09.000Z,0.105469
2022-07-28T13:34:18.000Z,1.520508
2022-07-28T13:43:27.000Z,0.119141
2022-07-28T13:43:47.000Z,0.100586
2022-07-28T13:44:08.000Z,0.100586
2022-07-28T13:44:17.000Z,1.663086
2022-07-28T13:53:23.000Z,0.079102
2022-07-28T13:53:43.000Z,0.069336
2022-07-28T13:54:03.000Z,0.110352
2022-07-28T13:54:13.000Z,1.533203
2022-07-28T14:02:23.000Z,0.112305
2022-07-28T14:02:44.000Z,0.103516
2022-07-28T14:03:04.000Z,0.098633
2022-07-28T14:03:13.000Z,1.054688
2022-07-28T14:07:19.000Z,0.148438
2022-07-28T14:07:39.000Z,0.151367
2022-07-28T14:07:59.000Z,0.143555
2022-07-28T14:08:09.000Z,1.118164
2022-07-28T14:11:41.000Z,0.118164
2022-07-28T14:12:01.000Z,0.123047
2022-07-28T14:12:22.000Z,0.115234
2022-07-28T14:12:31.000Z,1.367188
2022-07-28T14:19:07.000Z,0.078125
2022-07-28T14:19:27.000Z,0.075195
2022-07-28T14:19:47.000Z,0.096680
2022-07-28T14:19:56.000Z,1.478516
2022-07-28T14:28:10.000Z,0.086914
2022-07-28T14:28:30.000Z,0.086914
2022-07-28T14:28:51.000Z,0.102539
2022-07-28T14:29:00.000Z,1.513672
2022-07-28T14:37:34.000Z,0.104492
2022-07-28T14:37:55.000Z,0.093750
2022-07-28T14:38:15.000Z,0.076172
2022-07-28T14:38:24.000Z,1.630859
2022-07-28T14:46:58.000Z,0.103516
2022-07-28T14:47:18.000Z,0.097656
2022-07-28T14:47:38.000Z,0.107422
2022-07-28T14:47:48.000Z,1.688477
2022-07-28T14:57:25.000Z,0.094727
2022-07-28T14:57:45.000Z,0.085938
2022-07-28T14:58:06.000Z,0.092773
2022-07-28T14:58:15.000Z,1.576172
2022-07-28T15:07:47.000Z,0.082031
2022-07-28T15:08:08.000Z,0.087891
2022-07-28T15:08:28.000Z,0.086914
2022-07-28T15:08:37.000Z,1.693359
2022-07-28T15:17:46.000Z,0.084961
2022-07-28T15:18:06.000Z,0.097656
2022-07-28T15:18:26.000Z,0.083984
2022-07-28T15:18:36.000Z,1.595703
2022-07-28T15:27:53.000Z,0.084961
2022-07-28T15:28:14.000Z,0.092773
2022-07-28T15:28:34.000Z,0.101562
2022-07-28T15:28:43.000Z,1.527344
2022-07-28T15:37:50.000Z,0.083984
2022-07-28T15:38:10.000Z,0.103516
2022-07-28T15:38:31.000Z,0.115234
2022-07-28T15:38:40.000Z,1.152344
2022-07-28T15:42:17.000Z,0.570312
2022-07-28T15:42:37.000Z,2.867188
2022-07-28T15:42:57.000Z,6.186523
2022-07-28T15:43:17.000Z,2.958984
2022-07-28T15:43:38.000Z,7.517578
2022-07-28T15:43:58.000Z,5.977539
2022-07-28T15:44:18.000Z,9.538086
2022-07-28T15:44:38.000Z,4.994141
2022-07-28T15:44:59.000Z,5.019531
2022-07-28T15:45:19.000Z,7.239258
2022-07-28T15:45:39.000Z,5.815430
2022-07-28T15:46:00.000Z,6.898438
2022-07-28T15:46:20.000Z,6.501953
2022-07-28T15:46:40.000Z,4.397461
2022-07-28T15:47:00.000Z,4.524414
2022-07-28T15:47:21.000Z,6.311523
2022-07-28T15:47:41.000Z,6.611328
2022-07-28T15:48:01.000Z,6.405273
2022-07-28T15:48:21.000Z,5.059570
2022-07-28T15:48:42.000Z,1.305664
2022-07-28T15:49:02.000Z,1.709961
2022-07-28T15:49:22.000Z,2.108398
2022-07-28T15:49:42.000Z,2.027344
2022-07-28T15:50:03.000Z,23.656250
2022-07-28T15:50:23.000Z,35.487305
2022-07-28T15:50:43.000Z,27.140625
2022-07-28T15:51:03.000Z,23.742188
2022-07-28T15:51:24.000Z,13.492188
2022-07-28T15:51:44.000Z,14.666992
2022-07-28T15:52:04.000Z,18.450195
2022-07-28T15:52:25.000Z,9.430664
2022-07-28T15:52:45.000Z,11.814453
2022-07-28T15:53:05.000Z,10.355469
2022-07-28T15:53:25.000Z,20.228516
2022-07-28T15:53:46.000Z,3.542969
2022-07-28T15:54:06.000Z,0.288086
2022-07-28T15:54:26.000Z,0.139648
2022-07-28T15:54:47.000Z,0.092773
2022-07-28T15:54:49.000Z,1.626953
2022-07-28T15:59:32.000Z,8.744141
2022-07-28T15:59:52.000Z,23.328125
2022-07-28T16:00:12.000Z,14.133789
2022-07-28T16:00:32.000Z,13.779297
2022-07-28T16:00:53.000Z,14.372070
2022-07-28T16:01:13.000Z,15.388672
2022-07-28T16:01:33.000Z,11.154297
2022-07-28T16:01:54.000Z,21.361328
2022-07-28T16:02:14.000Z,19.085938
2022-07-28T16:02:34.000Z,1.272461
2022-07-28T16:02:54.000Z,0.487305
2022-07-28T16:03:15.000Z,26.168945
2022-07-28T16:03:35.000Z,22.022461
2022-07-28T16:03:55.000Z,19.379883
2022-07-28T16:04:15.000Z,21.731445
2022-07-28T16:04:36.000Z,16.489258
2022-07-28T16:04:56.000Z,19.360352
2022-07-28T16:05:16.000Z,24.332031
2022-07-28T16:05:37.000Z,20.367188
2022-07-28T16:05:57.000Z,10.875977
2022-07-28T16:06:17.000Z,27.917969
2022-07-28T16:06:37.000Z,28.736328
2022-07-28T16:06:58.000Z,25.429688
2022-07-28T16:07:18.000Z,23.045898
2022-07-28T16:07:38.000Z,17.986328
2022-07-28T16:07:58.000Z,23.110352
2022-07-28T16:08:19.000Z,22.120117
2022-07-28T16:08:39.000Z,21.808594
2022-07-28T16:08:59.000Z,23.229492
2022-07-28T16:09:20.000Z,19.898438
2022-07-28T16:09:40.000Z,2.706055
2022-07-28T16:10:00.000Z,18.263672
2022-07-28T16:10:20.000Z,23.591797
2022-07-28T16:10:41.000Z,1.741211
2022-07-28T16:11:01.000Z,9.348633
